Time;durP1;ratioP1;P1;durP2;ratioP2;P2;SDS_P1;SDS_P2;PMS_P1;PMS_P2;Temp;Humidity;BMP_temperature;BMP_pressure;BME280_temperature;BME280_humidity;BME280_pressure;Samples;Min_cycle;Max_cycle;Signal;HPM_P1;HPM_P2
2022/02/07 00:00:21;;;;;;;;;1.75;0.00;;;;;;;;5047748;28;10776;-74
2022/02/07 00:03:07;;;;;;;;;0.00;0.00;;;;;;;;5051577;28;10677;-75
2022/02/07 00:05:36;;;;;;;;;0.00;0.00;;;;;;;;5056101;28;11317;-74
2022/02/07 00:08:04;;;;;;;;;0.00;0.00;;;;;;;;5057615;28;10830;-74
2022/02/07 00:10:31;;;;;;;;;1.00;0.00;;;;;;;;5042480;28;10503;-74
2022/02/07 00:13:00;;;;;;;;;1.00;0.00;;;;;;;;5041570;28;10798;-75
2022/02/07 00:15:28;;;;;;;;;0.00;0.00;;;;;;;;5058951;28;11541;-75
2022/02/07 00:17:55;;;;;;;;;0.00;0.00;;;;;;;;5057576;28;10761;-74
2022/02/07 00:20:24;;;;;;;;;0.00;0.00;;;;;;;;5060111;28;11580;-74
2022/02/07 00:22:53;;;;;;;;;0.00;0.00;;;;;;;;5058805;28;10755;-74
2022/02/07 00:25:21;;;;;;;;;0.00;0.00;;;;;;;;5036683;28;10833;-74
2022/02/07 00:27:49;;;;;;;;;0.00;0.00;;;;;;;;5054093;28;10674;-75
2022/02/07 00:30:19;;;;;;;;;0.00;0.00;;;;;;;;5063140;28;10817;-74
2022/02/07 00:32:48;;;;;;;;;1.25;1.00;;;;;;;;5050216;28;10984;-73
2022/02/07 00:35:18;;;;;;;;;2.00;0.00;;;;;;;;5061819;28;11005;-75
2022/02/07 00:37:47;;;;;;;;;1.00;0.00;;;;;;;;5041119;28;10852;-75
2022/02/07 00:43:27;;;;;;;;;1.75;0.00;;;;;;;;5038492;28;11912;-75
2022/02/07 00:45:59;;;;;;;;;0.00;0.00;;;;;;;;5060223;28;11108;-74
2022/02/07 00:48:26;;;;;;;;;0.00;0.00;;;;;;;;5039507;28;11963;-75
2022/02/07 00:50:56;;;;;;;;;1.50;0.00;;;;;;;;5052096;28;11124;-74
2022/02/07 00:53:24;;;;;;;;;0.00;0.00;;;;;;;;5059388;28;11177;-75
2022/02/07 00:55:52;;;;;;;;;0.00;0.00;;;;;;;;5035499;28;11150;-75
2022/02/07 00:58:19;;;;;;;;;2.00;0.00;;;;;;;;5063300;28;11076;-74
2022/02/07 01:00:46;;;;;;;;;0.00;0.00;;;;;;;;5061620;28;11062;-75
2022/02/07 01:03:15;;;;;;;;;0.00;0.00;;;;;;;;5057721;28;11876;-75
2022/02/07 01:05:42;;;;;;;;;1.00;0.00;;;;;;;;5057891;28;11041;-74
2022/02/07 01:08:10;;;;;;;;;0.00;0.00;;;;;;;;5052867;28;11136;-74
2022/02/07 01:10:48;;;;;;;;;0.00;0.00;;;;;;;;5062332;28;11872;-75
2022/02/07 01:13:25;;;;;;;;;1.50;0.00;;;;;;;;5049614;28;11153;-74
2022/02/07 01:16:00;;;;;;;;;0.75;0.00;;;;;;;;5054829;28;11142;-74
2022/02/07 01:49:24;;;;;;;;;0.00;0.00;;;;;;;;5020335;28;12088;-74
2022/02/07 01:52:10;;;;;;;;;1.00;0.25;;;;;;;;5062652;28;11413;-74
2022/02/07 01:54:41;;;;;;;;;0.00;0.00;;;;;;;;5061371;28;11430;-75
2022/02/07 01:57:11;;;;;;;;;0.00;0.00;;;;;;;;5058446;28;11464;-75
2022/02/07 01:59:39;;;;;;;;;0.00;0.00;;;;;;;;5052842;28;11421;-74
2022/02/07 02:02:07;;;;;;;;;1.50;0.75;;;;;;;;5048233;28;11378;-75
2022/02/07 02:04:35;;;;;;;;;2.00;0.00;;;;;;;;5040821;28;12207;-75
2022/02/07 02:07:04;;;;;;;;;0.00;0.00;;;;;;;;5052220;28;11460;-75
2022/02/07 02:09:32;;;;;;;;;2.00;0.50;;;;;;;;5048604;28;11554;-74
2022/02/07 02:12:01;;;;;;;;;0.00;0.00;;;;;;;;5059841;28;11447;-74
2022/02/07 02:14:39;;;;;;;;;0.00;0.00;;;;;;;;5060979;28;11436;-74
2022/02/07 02:17:25;;;;;;;;;0.00;0.00;;;;;;;;5056650;28;11217;-74
2022/02/07 02:20:27;;;;;;;;;1.00;1.00;;;;;;;;5056597;28;11442;-74
2022/02/07 02:34:14;;;;;;;;;0.00;0.00;;;;;;;;5055388;28;11390;-74
2022/02/07 02:36:56;;;;;;;;;2.00;0.00;;;;;;;;5051982;28;11411;-74
2022/02/07 02:47:39;;;;;;;;;0.25;0.25;;;;;;;;5043197;28;11540;-74
2022/02/07 02:50:16;;;;;;;;;0.00;0.00;;;;;;;;5052583;28;11410;-74
2022/02/07 02:52:43;;;;;;;;;1.00;1.00;;;;;;;;5030008;28;11431;-74
2022/02/07 02:55:12;;;;;;;;;0.00;0.00;;;;;;;;5058506;28;11583;-74
2022/02/07 02:57:40;;;;;;;;;0.50;0.50;;;;;;;;5053317;28;12197;-74
2022/02/07 03:00:08;;;;;;;;;2.00;0.00;;;;;;;;5053271;28;11429;-74
2022/02/07 03:02:35;;;;;;;;;0.25;0.25;;;;;;;;5057092;28;11414;-75
2022/02/07 03:05:03;;;;;;;;;4.00;0.00;;;;;;;;5059508;28;11462;-74
2022/02/07 03:07:30;;;;;;;;;0.00;0.00;;;;;;;;5060344;28;11420;-75
2022/02/07 03:10:00;;;;;;;;;0.00;0.00;;;;;;;;5065069;28;11489;-75
2022/02/07 03:12:31;;;;;;;;;0.50;0.50;;;;;;;;5059320;28;12291;-74
2022/02/07 03:16:35;;;;;;;;;0.00;0.00;;;;;;;;5062488;28;11426;-75
2022/02/07 03:17:44;;;;;;;;;0.00;0.00;;;;;;;;5063300;28;11405;-74
2022/02/07 03:20:13;;;;;;;;;1.50;0.00;;;;;;;;5062710;28;11548;-74
2022/02/07 03:22:40;;;;;;;;;4.25;0.00;;;;;;;;5057659;28;11427;-73
2022/02/07 03:25:09;;;;;;;;;1.00;0.00;;;;;;;;5056432;28;11419;-74
2022/02/07 03:27:38;;;;;;;;;2.00;0.25;;;;;;;;5065044;28;11431;-75
2022/02/07 03:30:06;;;;;;;;;0.00;0.00;;;;;;;;5060421;28;11462;-74
2022/02/07 03:32:33;;;;;;;;;0.00;0.00;;;;;;;;5064622;28;11436;-75
2022/02/07 03:35:00;;;;;;;;;0.00;0.00;;;;;;;;5049411;28;12186;-75
2022/02/07 03:37:28;;;;;;;;;1.00;1.00;;;;;;;;5060743;28;11447;-74
2022/02/07 03:39:55;;;;;;;;;0.50;0.50;;;;;;;;5061136;28;11443;-75
2022/02/07 03:42:22;;;;;;;;;0.75;0.00;;;;;;;;5062958;28;11430;-74
2022/02/07 03:44:51;;;;;;;;;1.00;0.00;;;;;;;;5054820;28;12171;-74
2022/02/07 03:47:18;;;;;;;;;0.75;0.00;;;;;;;;5058677;28;11456;-75
2022/02/07 03:49:45;;;;;;;;;0.00;0.00;;;;;;;;5064622;28;12177;-75
2022/02/07 03:52:12;;;;;;;;;0.75;0.75;;;;;;;;5064799;28;11472;-74
2022/02/07 03:54:39;;;;;;;;;4.00;0.00;;;;;;;;5062720;28;11597;-75
2022/02/07 03:57:07;;;;;;;;;0.00;0.00;;;;;;;;5062353;28;11542;-75
2022/02/07 03:59:34;;;;;;;;;0.00;0.00;;;;;;;;5057677;28;11436;-74
2022/02/07 04:02:03;;;;;;;;;0.00;0.00;;;;;;;;5061808;28;11401;-74
2022/02/07 04:04:30;;;;;;;;;0.00;0.00;;;;;;;;5058485;28;11597;-75
2022/02/07 04:06:57;;;;;;;;;0.00;0.00;;;;;;;;5064009;28;11591;-76
2022/02/07 04:09:31;;;;;;;;;1.00;1.00;;;;;;;;5056227;28;11414;-74
2022/02/07 04:12:04;;;;;;;;;0.00;0.00;;;;;;;;5046585;28;11379;-74
2022/02/07 04:14:31;;;;;;;;;0.00;0.00;;;;;;;;5056962;28;11461;-74
2022/02/07 04:16:59;;;;;;;;;1.00;1.00;;;;;;;;5060752;28;11482;-74
2022/02/07 04:19:33;;;;;;;;;0.25;0.25;;;;;;;;5061844;28;11563;-74
2022/02/07 04:22:03;;;;;;;;;0.00;0.00;;;;;;;;5048619;28;11437;-74
2022/02/07 04:24:30;;;;;;;;;0.00;0.00;;;;;;;;5048793;28;12153;-74
2022/02/07 04:26:57;;;;;;;;;0.00;0.00;;;;;;;;5060224;28;11482;-74
2022/02/07 04:29:24;;;;;;;;;2.00;0.00;;;;;;;;5059015;28;11478;-75
2022/02/07 04:31:52;;;;;;;;;0.00;0.00;;;;;;;;5058540;28;11552;-73
2022/02/07 04:34:19;;;;;;;;;0.00;0.00;;;;;;;;5058209;28;11496;-74
2022/02/07 04:36:54;;;;;;;;;0.00;0.00;;;;;;;;5057537;28;11451;-74
2022/02/07 04:39:21;;;;;;;;;0.00;0.00;;;;;;;;5061152;28;11420;-74
2022/02/07 04:41:48;;;;;;;;;1.00;0.00;;;;;;;;5059740;28;11570;-74
2022/02/07 04:44:27;;;;;;;;;1.75;0.00;;;;;;;;5063990;28;11491;-74
2022/02/07 04:47:05;;;;;;;;;0.00;0.00;;;;;;;;5055588;28;11620;-74
2022/02/07 04:50:00;;;;;;;;;4.00;0.00;;;;;;;;5054605;28;11563;-74
2022/02/07 04:52:46;;;;;;;;;0.75;0.75;;;;;;;;5060570;28;12389;-74
2022/02/07 04:55:18;;;;;;;;;0.00;0.00;;;;;;;;5055657;28;11590;-74
2022/02/07 04:57:53;;;;;;;;;0.00;0.00;;;;;;;;5056033;28;12351;-74
2022/02/07 05:03:08;;;;;;;;;0.25;0.00;;;;;;;;5051130;28;12385;-74
2022/02/07 05:13:53;;;;;;;;;0.00;0.00;;;;;;;;5056752;28;11501;-75
2022/02/07 05:16:25;;;;;;;;;0.00;0.00;;;;;;;;5057118;28;11504;-75
2022/02/07 05:18:56;;;;;;;;;1.00;1.00;;;;;;;;5062847;28;11631;-75
2022/02/07 05:21:24;;;;;;;;;1.50;0.00;;;;;;;;5057545;28;12429;-75
2022/02/07 05:23:53;;;;;;;;;1.00;1.00;;;;;;;;5063428;28;11501;-75
2022/02/07 05:26:21;;;;;;;;;1.00;1.00;;;;;;;;5062199;28;11460;-76
2022/02/07 05:28:48;;;;;;;;;0.00;0.00;;;;;;;;5057396;28;11702;-75
2022/02/07 05:31:18;;;;;;;;;0.00;0.00;;;;;;;;5062192;28;11569;-75
2022/02/07 05:33:46;;;;;;;;;0.00;0.00;;;;;;;;5054177;28;11490;-75
2022/02/07 05:36:13;;;;;;;;;0.25;0.25;;;;;;;;5053934;28;11500;-75
2022/02/07 05:38:45;;;;;;;;;0.00;0.00;;;;;;;;5056565;28;11598;-76
2022/02/07 05:41:16;;;;;;;;;1.00;1.00;;;;;;;;5051280;28;11488;-76
2022/02/07 05:43:46;;;;;;;;;1.00;1.00;;;;;;;;5055496;28;11491;-76
2022/02/07 05:46:13;;;;;;;;;0.00;0.00;;;;;;;;5055853;28;11509;-76
2022/02/07 05:48:40;;;;;;;;;0.50;0.50;;;;;;;;5060326;28;11474;-75
2022/02/07 05:51:08;;;;;;;;;1.00;1.00;;;;;;;;5063082;28;11615;-76
2022/02/07 05:53:36;;;;;;;;;0.00;0.00;;;;;;;;5054884;28;11474;-75
2022/02/07 05:56:04;;;;;;;;;0.50;0.00;;;;;;;;5058211;28;11529;-76
2022/02/07 05:58:33;;;;;;;;;0.00;0.00;;;;;;;;5061372;28;11461;-76
2022/02/07 06:01:00;;;;;;;;;3.00;0.00;;;;;;;;5057692;28;13483;-76
2022/02/07 06:03:28;;;;;;;;;0.25;0.25;;;;;;;;5036010;28;11485;-76
2022/02/07 06:05:55;;;;;;;;;4.00;1.50;;;;;;;;5058887;28;11484;-76
2022/02/07 06:08:22;;;;;;;;;1.00;1.00;;;;;;;;5059737;28;11557;-75
2022/02/07 06:10:50;;;;;;;;;1.00;1.00;;;;;;;;5061369;28;11487;-75
2022/02/07 06:13:18;;;;;;;;;0.00;0.00;;;;;;;;5043880;28;11485;-76
2022/02/07 06:15:47;;;;;;;;;2.50;1.00;;;;;;;;5060531;28;11557;-75
2022/02/07 06:18:17;;;;;;;;;0.75;0.75;;;;;;;;5048420;28;11523;-74
2022/02/07 06:20:45;;;;;;;;;0.00;0.00;;;;;;;;5037292;28;11496;-74
2022/02/07 06:23:12;;;;;;;;;0.25;0.25;;;;;;;;5053000;28;11498;-74
2022/02/07 06:25:39;;;;;;;;;0.50;0.50;;;;;;;;5041693;28;11581;-73
2022/02/07 06:28:07;;;;;;;;;0.75;0.75;;;;;;;;5054683;28;11557;-78
2022/02/07 06:30:34;;;;;;;;;1.00;0.00;;;;;;;;5052635;28;12216;-76
2022/02/07 06:33:03;;;;;;;;;1.00;1.00;;;;;;;;5055164;28;11471;-75
2022/02/07 06:35:30;;;;;;;;;1.00;1.00;;;;;;;;5036602;28;11481;-74
2022/02/07 06:37:57;;;;;;;;;0.25;0.00;;;;;;;;5063078;28;11483;-75
2022/02/07 06:40:25;;;;;;;;;2.25;1.00;;;;;;;;5061114;28;11582;-76
2022/02/07 06:42:53;;;;;;;;;1.25;1.25;;;;;;;;5062832;28;12263;-76
2022/02/07 06:45:20;;;;;;;;;1.25;0.00;;;;;;;;5062128;28;11494;-77
2022/02/07 06:47:47;;;;;;;;;0.00;0.00;;;;;;;;5058560;28;11490;-76
2022/02/07 06:50:16;;;;;;;;;1.00;1.00;;;;;;;;5061755;28;12223;-77
2022/02/07 06:52:43;;;;;;;;;1.00;1.00;;;;;;;;5061267;28;11484;-77
2022/02/07 06:55:11;;;;;;;;;1.00;1.00;;;;;;;;5063207;28;11609;-77
2022/02/07 06:57:38;;;;;;;;;0.00;0.00;;;;;;;;5056235;28;11505;-76
2022/02/07 07:00:07;;;;;;;;;0.00;0.00;;;;;;;;5058076;28;11513;-75
2022/02/07 07:02:35;;;;;;;;;1.00;1.00;;;;;;;;5060305;28;11475;-77
2022/02/07 07:05:08;;;;;;;;;1.00;1.00;;;;;;;;5056058;28;12249;-76
2022/02/07 07:07:37;;;;;;;;;1.00;1.00;;;;;;;;5063404;28;11454;-76
2022/02/07 07:10:05;;;;;;;;;1.50;0.00;;;;;;;;5061515;28;11505;-76
2022/02/07 07:12:33;;;;;;;;;0.75;0.75;;;;;;;;5060677;28;11491;-76
2022/02/07 07:15:08;;;;;;;;;2.50;1.50;;;;;;;;5060670;28;11484;-76
2022/02/07 07:17:35;;;;;;;;;3.50;1.00;;;;;;;;5042760;28;11505;-76
2022/02/07 07:20:05;;;;;;;;;0.25;0.25;;;;;;;;5048467;28;11520;-76
2022/02/07 07:22:32;;;;;;;;;0.00;0.00;;;;;;;;5057694;28;11483;-76
2022/02/07 07:25:02;;;;;;;;;3.50;1.00;;;;;;;;5057638;28;12393;-84
2022/02/07 07:27:33;;;;;;;;;0.00;0.00;;;;;;;;5059970;28;11639;-84
2022/02/07 07:30:01;;;;;;;;;2.50;1.00;;;;;;;;5058925;28;11496;-82
2022/02/07 07:32:30;;;;;;;;;0.50;0.25;;;;;;;;5053159;28;11439;-87
2022/02/07 07:34:59;;;;;;;;;5.00;1.00;;;;;;;;5056403;28;11493;-81
2022/02/07 07:37:26;;;;;;;;;2.50;0.00;;;;;;;;5056429;28;11506;-78
2022/02/07 07:39:53;;;;;;;;;1.50;0.00;;;;;;;;5059860;28;11565;-76
2022/02/07 07:42:22;;;;;;;;;3.50;1.00;;;;;;;;5061801;28;11590;-78
2022/02/07 07:44:52;;;;;;;;;1.50;1.50;;;;;;;;5058549;28;12081;-79
2022/02/07 07:47:25;;;;;;;;;6.00;1.50;;;;;;;;5061723;28;11607;-80
2022/02/07 07:50:02;;;;;;;;;4.00;1.00;;;;;;;;5058717;28;11457;-77
2022/02/07 07:52:44;;;;;;;;;0.50;0.50;;;;;;;;5058243;28;11484;-81
2022/02/07 07:55:27;;;;;;;;;1.25;1.25;;;;;;;;5052143;28;11506;-83
2022/02/07 08:03:27;;;;;;;;;0.50;0.50;;;;;;;;5058878;28;11481;-83
2022/02/07 08:06:07;;;;;;;;;2.00;2.00;;;;;;;;5032845;28;11508;-81
2022/02/07 08:08:40;;;;;;;;;1.00;1.00;;;;;;;;5059536;28;11528;-77
2022/02/07 08:11:11;;;;;;;;;2.00;2.00;;;;;;;;5042319;28;11490;-86
2022/02/07 08:13:41;;;;;;;;;4.00;4.00;;;;;;;;5061362;28;11497;-86
2022/02/07 08:16:08;;;;;;;;;1.00;1.00;;;;;;;;5057836;28;11646;-74
2022/02/07 08:18:36;;;;;;;;;1.00;1.00;;;;;;;;5064684;28;11524;-80
2022/02/07 08:21:03;;;;;;;;;1.00;1.00;;;;;;;;5056067;28;11523;-76
2022/02/07 08:23:31;;;;;;;;;1.50;1.50;;;;;;;;5061541;28;11511;-87
2022/02/07 08:26:01;;;;;;;;;2.00;2.00;;;;;;;;5063450;28;12279;-76
2022/02/07 08:28:29;;;;;;;;;1.75;1.75;;;;;;;;5051728;28;11606;-89
2022/02/07 08:30:58;;;;;;;;;3.50;1.00;;;;;;;;5062995;28;11538;-89
2022/02/07 08:33:25;;;;;;;;;1.00;1.00;;;;;;;;5055326;28;11502;-81
2022/02/07 08:35:53;;;;;;;;;1.25;1.25;;;;;;;;5061131;28;11564;-83
2022/02/07 08:38:20;;;;;;;;;3.50;2.00;;;;;;;;5063152;28;11597;-85
2022/02/07 08:40:48;;;;;;;;;1.00;1.00;;;;;;;;5068211;28;12542;-83
2022/02/07 08:43:16;;;;;;;;;1.25;1.25;;;;;;;;5061611;28;11497;-94
2022/02/07 08:45:44;;;;;;;;;2.00;2.00;;;;;;;;5055508;28;11517;-93
2022/02/07 08:48:12;;;;;;;;;5.75;3.50;;;;;;;;5062892;28;11524;-93
2022/02/07 08:50:40;;;;;;;;;1.00;1.00;;;;;;;;5062766;28;11602;-91
2022/02/07 08:53:08;;;;;;;;;3.50;3.50;;;;;;;;5064678;28;11518;-90
2022/02/07 08:55:37;;;;;;;;;2.50;1.00;;;;;;;;5063710;28;11580;-87
2022/02/07 08:58:08;;;;;;;;;4.25;2.00;;;;;;;;5066436;28;11472;-88
2022/02/07 09:00:48;;;;;;;;;3.00;1.75;;;;;;;;5059962;28;11458;-89
2022/02/07 09:03:43;;;;;;;;;1.25;1.00;;;;;;;;5059020;28;11529;-90
2022/02/07 09:06:27;;;;;;;;;2.50;2.00;;;;;;;;5059897;28;11455;-86
2022/02/07 09:09:07;;;;;;;;;2.75;1.50;;;;;;;;5054284;28;11439;-87
2022/02/07 09:11:35;;;;;;;;;4.00;1.75;;;;;;;;5056928;28;11550;-84
2022/02/07 09:14:09;;;;;;;;;2.00;2.00;;;;;;;;5064778;28;11432;-89
2022/02/07 09:16:37;;;;;;;;;4.25;4.25;;;;;;;;5045000;28;11492;-84
2022/02/07 09:19:06;;;;;;;;;2.00;2.00;;;;;;;;5060139;28;11544;-93
2022/02/07 09:21:33;;;;;;;;;3.00;3.00;;;;;;;;5057725;28;11429;-74
2022/02/07 09:24:01;;;;;;;;;5.75;2.00;;;;;;;;5056471;28;11465;-84
2022/02/07 09:26:29;;;;;;;;;4.75;2.25;;;;;;;;5058240;28;11460;-83
2022/02/07 09:28:57;;;;;;;;;1.00;1.00;;;;;;;;5055945;28;11544;-84
2022/02/07 09:31:24;;;;;;;;;1.75;1.25;;;;;;;;5058657;28;11356;-83
2022/02/07 09:33:53;;;;;;;;;5.75;1.50;;;;;;;;5058292;28;11435;-83
2022/02/07 09:36:23;;;;;;;;;3.25;2.00;;;;;;;;5058366;28;11405;-82
2022/02/07 09:38:51;;;;;;;;;4.00;3.25;;;;;;;;5057646;28;12021;-81
2022/02/07 09:41:21;;;;;;;;;5.50;1.00;;;;;;;;5053170;28;11229;-80
2022/02/07 09:43:49;;;;;;;;;2.00;1.00;;;;;;;;5061540;28;11056;-77
2022/02/07 09:46:22;;;;;;;;;4.50;2.75;;;;;;;;5054490;28;11904;-81
2022/02/07 09:48:51;;;;;;;;;2.00;2.00;;;;;;;;5057520;28;11149;-80
2022/02/07 09:51:21;;;;;;;;;4.00;3.00;;;;;;;;5044372;28;10772;-80
2022/02/07 09:53:49;;;;;;;;;1.75;1.75;;;;;;;;5063049;28;10765;-76
2022/02/07 09:56:17;;;;;;;;;1.00;1.00;;;;;;;;5053882;28;10698;-79
2022/02/07 09:58:49;;;;;;;;;3.00;3.00;;;;;;;;5060397;28;11196;-78
2022/02/07 10:01:24;;;;;;;;;4.75;3.00;;;;;;;;5059957;28;10710;-78
2022/02/07 10:03:57;;;;;;;;;6.25;5.00;;;;;;;;5060582;28;10622;-79
2022/02/07 10:06:35;;;;;;;;;1.50;1.00;;;;;;;;5056297;28;10538;-78
2022/02/07 10:12:09;;;;;;;;;3.25;2.00;;;;;;;;5038556;28;10396;-79
2022/02/07 10:14:43;;;;;;;;;2.00;2.00;;;;;;;;5062945;28;10329;-77
2022/02/07 10:17:33;;;;;;;;;1.00;1.00;;;;;;;;5064542;28;10185;-77
2022/02/07 10:20:28;;;;;;;;;3.00;1.25;;;;;;;;5040511;28;10036;-79
2022/02/07 10:40:13;;;;;;;;;1.00;1.00;;;;;;;;5047085;28;9670;-81
2022/02/07 10:43:12;;;;;;;;;1.00;1.00;;;;;;;;5055952;28;9703;-79
2022/02/07 10:46:01;;;;;;;;;3.75;1.00;;;;;;;;5056908;28;9597;-79
2022/02/07 10:48:34;;;;;;;;;3.00;1.50;;;;;;;;5062908;28;9591;-77
2022/02/07 10:51:06;;;;;;;;;1.00;1.00;;;;;;;;5063351;28;9488;-80
2022/02/07 10:53:36;;;;;;;;;1.00;1.00;;;;;;;;5054717;28;10131;-78
2022/02/07 10:56:06;;;;;;;;;0.33;0.33;;;;;;;;5054086;28;9434;-78
2022/02/07 10:58:33;;;;;;;;;3.00;1.00;;;;;;;;5059616;28;9092;-86
2022/02/07 11:01:05;;;;;;;;;0.00;0.00;;;;;;;;5060345;28;10080;-79
2022/02/07 11:03:38;;;;;;;;;1.00;1.00;;;;;;;;5066458;28;9408;-78
2022/02/07 11:06:10;;;;;;;;;0.00;0.00;;;;;;;;5055111;28;9498;-77
2022/02/07 11:08:47;;;;;;;;;1.00;1.00;;;;;;;;5051358;28;9395;-78
2022/02/07 11:11:40;;;;;;;;;2.33;1.33;;;;;;;;5060564;28;9266;-76
2022/02/07 11:17:07;;;;;;;;;4.00;1.00;;;;;;;;5055578;28;9444;-78
2022/02/07 11:19:44;;;;;;;;;1.00;1.00;;;;;;;;5062555;28;9307;-80
2022/02/07 11:22:28;;;;;;;;;2.67;1.00;;;;;;;;5054013;28;9341;-78
2022/02/07 11:25:10;;;;;;;;;0.00;0.00;;;;;;;;5052700;28;9257;-82
2022/02/07 11:27:50;;;;;;;;;1.00;1.00;;;;;;;;5068093;28;9168;-82
2022/02/07 11:30:20;;;;;;;;;0.00;0.00;;;;;;;;5064158;28;10647;-84
2022/02/07 11:32:55;;;;;;;;;0.67;0.00;;;;;;;;5060482;28;9219;-80
2022/02/07 11:35:25;;;;;;;;;0.00;0.00;;;;;;;;5056327;28;9023;-84
2022/02/07 11:38:09;;;;;;;;;1.33;0.00;;;;;;;;5063926;28;8998;-79
2022/02/07 11:40:38;;;;;;;;;3.00;1.33;;;;;;;;5057900;28;8968;-78
2022/02/07 11:43:20;;;;;;;;;1.75;0.25;;;;;;;;5059845;28;8989;-80
2022/02/07 11:45:53;;;;;;;;;3.75;2.50;;;;;;;;5061160;28;9874;-80
2022/02/07 11:48:30;;;;;;;;;1.00;1.00;;;;;;;;5063478;28;8891;-88
2022/02/07 11:50:59;;;;;;;;;0.00;0.00;;;;;;;;5063711;28;8848;-86
2022/02/07 11:53:39;;;;;;;;;4.50;3.25;;;;;;;;5060054;28;8892;-83
2022/02/07 11:56:15;;;;;;;;;2.75;0.50;;;;;;;;5061176;28;9598;-78
2022/02/07 11:58:54;;;;;;;;;0.25;0.25;;;;;;;;5061075;28;8869;-81
2022/02/07 12:01:52;;;;;;;;;3.00;1.00;;;;;;;;5057608;28;8964;-83
2022/02/07 12:04:37;;;;;;;;;1.00;1.00;;;;;;;;5044837;28;8888;-82
2022/02/07 12:07:09;;;;;;;;;0.75;0.75;;;;;;;;5057327;28;9520;-83
2022/02/07 12:09:36;;;;;;;;;0.00;0.00;;;;;;;;5055286;28;8934;-80
2022/02/07 12:12:04;;;;;;;;;7.00;7.00;;;;;;;;5063019;28;8836;-76
2022/02/07 12:14:36;;;;;;;;;4.00;1.25;;;;;;;;5043570;28;8868;-75
2022/02/07 12:17:04;;;;;;;;;1.75;1.75;;;;;;;;5058821;28;8871;-82
2022/02/07 12:19:39;;;;;;;;;0.75;0.75;;;;;;;;5048550;28;9755;-78
2022/02/07 12:22:15;;;;;;;;;2.75;1.00;;;;;;;;5049616;28;8867;-76
2022/02/07 12:24:56;;;;;;;;;0.25;0.25;;;;;;;;5056640;28;8847;-78
2022/02/07 12:27:23;;;;;;;;;0.00;0.00;;;;;;;;5058566;28;8867;-80
2022/02/07 12:32:42;;;;;;;;;1.00;1.00;;;;;;;;5045042;28;8821;-77
2022/02/07 12:35:10;;;;;;;;;2.00;1.00;;;;;;;;5060278;28;8861;-78
2022/02/07 12:37:40;;;;;;;;;5.25;1.00;;;;;;;;5052677;28;9041;-80
2022/02/07 12:40:10;;;;;;;;;0.00;0.00;;;;;;;;5060793;28;8866;-75
2022/02/07 12:42:40;;;;;;;;;1.00;1.00;;;;;;;;5061119;28;9629;-81
2022/02/07 12:45:11;;;;;;;;;1.00;1.00;;;;;;;;5059919;28;8865;-79
2022/02/07 12:47:39;;;;;;;;;0.00;0.00;;;;;;;;5060600;28;8878;-76
2022/02/07 12:50:08;;;;;;;;;0.75;0.75;;;;;;;;5054365;28;8853;-78
2022/02/07 12:52:36;;;;;;;;;0.75;0.75;;;;;;;;5060628;28;8874;-78
2022/02/07 12:55:03;;;;;;;;;1.00;1.00;;;;;;;;5058611;28;8914;-80
2022/02/07 12:57:34;;;;;;;;;1.00;1.00;;;;;;;;5054991;28;8870;-79
2022/02/07 13:00:02;;;;;;;;;0.75;0.00;;;;;;;;5048643;28;8866;-78
2022/02/07 13:02:32;;;;;;;;;0.00;0.00;;;;;;;;5059643;28;8839;-82
2022/02/07 13:04:59;;;;;;;;;0.75;0.75;;;;;;;;5057149;28;8846;-82
2022/02/07 13:07:31;;;;;;;;;2.00;0.00;;;;;;;;5056271;28;8850;-83
2022/02/07 13:09:58;;;;;;;;;0.00;0.00;;;;;;;;5052023;28;8859;-83
2022/02/07 13:12:38;;;;;;;;;1.00;0.00;;;;;;;;5043868;28;10145;-84
2022/02/07 13:15:13;;;;;;;;;0.75;0.75;;;;;;;;5058296;28;8890;-81
2022/02/07 13:17:42;;;;;;;;;1.75;0.00;;;;;;;;5051763;28;8889;-82
2022/02/07 13:20:12;;;;;;;;;0.00;0.00;;;;;;;;5044264;28;8883;-75
2022/02/07 13:22:39;;;;;;;;;0.00;0.00;;;;;;;;5050849;28;8859;-82
2022/02/07 13:25:08;;;;;;;;;1.00;0.00;;;;;;;;5047407;28;9411;-80
2022/02/07 13:27:39;;;;;;;;;2.00;0.00;;;;;;;;5065071;28;8975;-83
2022/02/07 13:30:10;;;;;;;;;2.00;0.75;;;;;;;;5063210;28;8891;-82
2022/02/07 13:32:37;;;;;;;;;0.00;0.00;;;;;;;;5062637;28;8905;-83
2022/02/07 13:35:08;;;;;;;;;1.50;0.00;;;;;;;;5053081;28;8876;-83
2022/02/07 13:37:37;;;;;;;;;1.25;0.00;;;;;;;;5064048;28;8901;-83
2022/02/07 13:40:07;;;;;;;;;2.25;0.00;;;;;;;;5064658;28;8890;-82
2022/02/07 13:42:37;;;;;;;;;2.25;2.00;;;;;;;;5052680;28;9633;-84
2022/02/07 13:45:07;;;;;;;;;0.25;0.00;;;;;;;;5051681;28;8877;-81
2022/02/07 13:47:35;;;;;;;;;0.25;0.25;;;;;;;;5056537;28;8912;-84
2022/02/07 13:50:07;;;;;;;;;0.50;0.00;;;;;;;;5064568;28;8878;-84
2022/02/07 13:52:37;;;;;;;;;1.25;0.00;;;;;;;;5064330;28;8864;-83
2022/02/07 13:55:21;;;;;;;;;0.00;0.00;;;;;;;;5050159;28;8908;-82
2022/02/07 13:57:53;;;;;;;;;1.00;0.00;;;;;;;;5064268;28;8953;-79
2022/02/07 14:00:22;;;;;;;;;0.00;0.00;;;;;;;;5064899;28;8965;-77
2022/02/07 14:02:49;;;;;;;;;1.00;0.00;;;;;;;;5053613;28;8914;-81
2022/02/07 14:05:19;;;;;;;;;0.25;0.25;;;;;;;;5062999;28;8987;-81
2022/02/07 14:07:50;;;;;;;;;0.00;0.00;;;;;;;;5063977;28;8866;-84
2022/02/07 14:10:19;;;;;;;;;0.00;0.00;;;;;;;;5051558;28;8959;-82
2022/02/07 14:12:47;;;;;;;;;1.00;0.00;;;;;;;;5057174;28;8865;-83
2022/02/07 14:15:15;;;;;;;;;0.00;0.00;;;;;;;;5062012;28;8873;-81
2022/02/07 14:17:45;;;;;;;;;0.00;0.00;;;;;;;;5048601;28;9007;-81
2022/02/07 14:20:18;;;;;;;;;0.25;0.00;;;;;;;;5044764;28;8930;-84
2022/02/07 14:22:47;;;;;;;;;0.00;0.00;;;;;;;;5044289;28;8850;-83
2022/02/07 14:25:14;;;;;;;;;0.00;0.00;;;;;;;;5042523;28;8862;-84
2022/02/07 14:27:41;;;;;;;;;1.00;0.00;;;;;;;;5044404;28;8874;-82
2022/02/07 14:30:10;;;;;;;;;0.00;0.00;;;;;;;;5042603;28;8901;-83
2022/02/07 14:32:37;;;;;;;;;1.50;0.00;;;;;;;;5051323;28;8866;-83
2022/02/07 14:35:05;;;;;;;;;3.00;0.00;;;;;;;;5062118;28;9662;-83
2022/02/07 14:37:33;;;;;;;;;0.00;0.00;;;;;;;;5063824;28;8871;-81
2022/02/07 14:40:01;;;;;;;;;0.00;0.00;;;;;;;;5063362;28;8871;-83
2022/02/07 14:42:29;;;;;;;;;2.00;0.00;;;;;;;;5044681;28;8850;-82
2022/02/07 14:45:08;;;;;;;;;0.00;0.00;;;;;;;;5043956;28;8885;-83
2022/02/07 14:47:50;;;;;;;;;2.00;0.00;;;;;;;;5057131;28;8862;-83
2022/02/07 14:50:19;;;;;;;;;1.00;1.00;;;;;;;;5053411;28;8866;-83
2022/02/07 14:52:47;;;;;;;;;1.50;0.00;;;;;;;;5052885;28;8880;-83
2022/02/07 14:55:16;;;;;;;;;0.00;0.00;;;;;;;;5064933;28;8892;-83
2022/02/07 14:57:43;;;;;;;;;1.00;1.00;;;;;;;;5067446;28;8884;-83
2022/02/07 15:00:13;;;;;;;;;2.00;0.00;;;;;;;;5064000;28;8858;-83
2022/02/07 15:02:41;;;;;;;;;0.00;0.00;;;;;;;;5055670;28;9016;-84
2022/02/07 15:05:09;;;;;;;;;1.25;0.00;;;;;;;;5065950;28;8943;-84
2022/02/07 15:07:36;;;;;;;;;0.00;0.00;;;;;;;;5067735;28;8999;-84
2022/02/07 15:10:04;;;;;;;;;0.00;0.00;;;;;;;;5053005;28;9660;-83
2022/02/07 15:12:33;;;;;;;;;0.00;0.00;;;;;;;;5067748;28;8866;-82
2022/02/07 15:15:01;;;;;;;;;3.00;0.00;;;;;;;;5062516;28;8857;-84
2022/02/07 15:17:29;;;;;;;;;2.00;0.00;;;;;;;;5059606;28;8859;-84
2022/02/07 15:19:57;;;;;;;;;1.00;0.00;;;;;;;;5066037;28;8871;-83
2022/02/07 15:22:24;;;;;;;;;0.00;0.00;;;;;;;;5066775;28;8886;-85
2022/02/07 15:24:52;;;;;;;;;0.25;0.00;;;;;;;;5079902;28;8980;-83
2022/02/07 15:27:21;;;;;;;;;0.00;0.00;;;;;;;;5085792;28;8862;-84
2022/02/07 15:29:50;;;;;;;;;1.00;0.00;;;;;;;;5087423;28;8872;-84
2022/02/07 15:32:26;;;;;;;;;0.00;0.00;;;;;;;;5086885;28;8832;-82
2022/02/07 15:34:55;;;;;;;;;2.00;0.00;;;;;;;;5066856;28;8895;-86
2022/02/07 15:37:23;;;;;;;;;0.00;0.00;;;;;;;;5067308;28;8860;-86
2022/02/07 15:39:50;;;;;;;;;0.00;0.00;;;;;;;;5075839;28;8872;-83
2022/02/07 15:42:18;;;;;;;;;2.00;0.00;;;;;;;;5076843;28;9629;-79
2022/02/07 15:44:46;;;;;;;;;0.00;0.00;;;;;;;;5077839;28;9639;-88
2022/02/07 15:47:15;;;;;;;;;0.00;0.00;;;;;;;;5085192;28;8858;-86
2022/02/07 15:49:43;;;;;;;;;0.00;0.00;;;;;;;;5073513;28;8856;-86
2022/02/07 15:52:11;;;;;;;;;1.00;1.00;;;;;;;;5069846;28;9020;-79
2022/02/07 15:54:39;;;;;;;;;1.00;0.50;;;;;;;;5077056;28;8862;-78
2022/02/07 15:57:09;;;;;;;;;0.00;0.00;;;;;;;;5051731;28;8858;-78
2022/02/07 15:59:39;;;;;;;;;0.00;0.00;;;;;;;;5085087;28;8850;-76
2022/02/07 16:02:07;;;;;;;;;1.00;1.00;;;;;;;;5065535;28;8864;-78
2022/02/07 16:04:37;;;;;;;;;0.00;0.00;;;;;;;;5074709;28;9016;-76
2022/02/07 16:07:06;;;;;;;;;0.00;0.00;;;;;;;;5070267;28;8844;-80
2022/02/07 16:09:34;;;;;;;;;0.00;0.00;;;;;;;;5074401;28;9632;-81
2022/02/07 16:12:04;;;;;;;;;1.25;0.00;;;;;;;;5085839;28;8885;-81
2022/02/07 16:14:31;;;;;;;;;0.25;0.25;;;;;;;;5078463;28;8875;-81
2022/02/07 16:16:59;;;;;;;;;0.00;0.00;;;;;;;;5081566;28;8870;-82
2022/02/07 16:19:29;;;;;;;;;0.50;0.00;;;;;;;;5075088;28;8969;-79
2022/02/07 16:21:58;;;;;;;;;0.00;0.00;;;;;;;;5070834;28;8940;-77
2022/02/07 16:24:26;;;;;;;;;0.00;0.00;;;;;;;;5079257;28;8831;-80
2022/02/07 16:26:53;;;;;;;;;0.50;0.50;;;;;;;;5084799;28;8978;-79
2022/02/07 16:29:21;;;;;;;;;1.00;1.00;;;;;;;;5077639;28;8959;-79
2022/02/07 16:31:49;;;;;;;;;2.33;0.33;;;;;;;;5077434;28;8891;-79
2022/02/07 16:34:18;;;;;;;;;0.00;0.00;;;;;;;;5077300;28;9799;-80
2022/02/07 16:36:45;;;;;;;;;0.00;0.00;;;;;;;;5077762;28;9880;-79
2022/02/07 16:39:15;;;;;;;;;0.33;0.33;;;;;;;;5084961;28;9198;-80
2022/02/07 16:41:44;;;;;;;;;0.33;0.33;;;;;;;;5074720;28;9419;-80
2022/02/07 16:44:13;;;;;;;;;1.00;1.00;;;;;;;;5081920;28;9448;-79